Portada
METAR-TAF:

METAR-TAF

Aeroports :

El Obeid, Sudan

latitud: 13-10N, longitud: 030-14E, altitud: 574 m

METAR: manca

Hora: 14:24 (12:24 UTC)

Pronòstic

L'informe es va fer fa 1 hora i 24 minuts, a les 11:00 UTC
Pronòstic vàlid del 05 a les 12 UTC al 06 a les 18 UTC
Vent 6 kt del Sud amb ràfegues de 16 kt
Visibilitat 10 km o més
Escasses núvols a una alçada de 4000 ft
Núvols disperses a una alçada de 14000 ft
Temporalment
l' 05 a les 15 UTC al 05 a les 20 UTC
Visibilitat: 6000 m
Escasses núvols a una alçada de 4500 ft, Cumulonimbus.
Cel ennuvolat a una alçada de 14000 ft
tempesta, pluja

TAF: HSOB 051100Z 0512/0618 18006G16KT 9999 FEW040 SCT140 TEMPO 0515/0520 6000 TSRA FEW045CB BKN140

Observacions i pronòstics meteorològics de més de 4000 aeroports (METAR i TAF).

Les estacions disponibles són els punts grocs i vermells al mapa.

Posi el ratolí al punt desitjat per veure el nom de l'estació.

Feu clic per veure les observacions i els pronòstics meteorològics.

Per canviar el mapa: feu clic els botons verds amb una creu de color negre per apropar; al botó verd amb un guió per allunyar la imatge; o en les fletxes verdes per a mapes adjacents.


METAR-TAF: